sensor_id;sensor_type;location;lat;lon;timestamp;temperature;humidity
1766;DHT22;880;52.452;8.656;2023-04-07T00:01:38;10.80;99.90
1766;DHT22;880;52.452;8.656;2023-04-07T00:04:06;10.80;99.90
1766;DHT22;880;52.452;8.656;2023-04-07T00:06:33;10.80;99.90
1766;DHT22;880;52.452;8.656;2023-04-07T00:09:00;10.70;99.90
1766;DHT22;880;52.452;8.656;2023-04-07T00:11:27;10.70;99.90
1766;DHT22;880;52.452;8.656;2023-04-07T00:13:54;10.60;99.90
1766;DHT22;880;52.452;8.656;2023-04-07T00:16:22;10.60;99.90
1766;DHT22;880;52.452;8.656;2023-04-07T00:18:49;10.60;99.90
1766;DHT22;880;52.452;8.656;2023-04-07T00:21:16;10.60;99.90
1766;DHT22;880;52.452;8.656;2023-04-07T00:23:43;10.60;99.90
1766;DHT22;880;52.452;8.656;2023-04-07T00:26:34;10.50;99.90
1766;DHT22;880;52.452;8.656;2023-04-07T00:29:01;10.50;99.90
1766;DHT22;880;52.452;8.656;2023-04-07T00:31:28;10.40;99.90
1766;DHT22;880;52.452;8.656;2023-04-07T00:33:56;10.40;99.90
1766;DHT22;880;52.452;8.656;2023-04-07T00:36:28;10.20;99.90
1766;DHT22;880;52.452;8.656;2023-04-07T00:38:55;10.10;99.90
1766;DHT22;880;52.452;8.656;2023-04-07T00:41:22;10.10;99.90
1766;DHT22;880;52.452;8.656;2023-04-07T00:43:50;10.00;99.90
1766;DHT22;880;52.452;8.656;2023-04-07T00:46:21;10.00;99.90
1766;DHT22;880;52.452;8.656;2023-04-07T00:48:49;9.90;99.90
1766;DHT22;880;52.452;8.656;2023-04-07T00:51:20;9.80;99.90
1766;DHT22;880;52.452;8.656;2023-04-07T00:53:48;9.80;99.90
1766;DHT22;880;52.452;8.656;2023-04-07T00:56:15;9.70;99.90
1766;DHT22;880;52.452;8.656;2023-04-07T00:58:42;9.50;99.90
1766;DHT22;880;52.452;8.656;2023-04-07T01:01:21;9.40;99.90
1766;DHT22;880;52.452;8.656;2023-04-07T01:03:58;9.30;99.90
1766;DHT22;880;52.452;8.656;2023-04-07T01:06:37;9.30;99.90
1766;DHT22;880;52.452;8.656;2023-04-07T01:09:12;9.30;99.90
1766;DHT22;880;52.452;8.656;2023-04-07T01:14:38;9.20;99.90
1766;DHT22;880;52.452;8.656;2023-04-07T01:17:24;9.20;99.90
1766;DHT22;880;52.452;8.656;2023-04-07T01:19:58;9.20;99.90
1766;DHT22;880;52.452;8.656;2023-04-07T01:22:42;9.20;99.90
1766;DHT22;880;52.452;8.656;2023-04-07T01:31:04;9.00;99.90
1766;DHT22;880;52.452;8.656;2023-04-07T01:33:32;9.00;99.90
1766;DHT22;880;52.452;8.656;2023-04-07T01:36:02;8.90;99.90
1766;DHT22;880;52.452;8.656;2023-04-07T01:38:32;9.00;99.90
1766;DHT22;880;52.452;8.656;2023-04-07T01:40:59;9.00;99.90
1766;DHT22;880;52.452;8.656;2023-04-07T01:43:27;9.00;99.90
1766;DHT22;880;52.452;8.656;2023-04-07T01:45:56;9.00;99.90
1766;DHT22;880;52.452;8.656;2023-04-07T01:48:24;8.90;99.90
1766;DHT22;880;52.452;8.656;2023-04-07T01:50:51;9.00;99.90
1766;DHT22;880;52.452;8.656;2023-04-07T01:53:19;8.90;99.90
1766;DHT22;880;52.452;8.656;2023-04-07T01:55:46;8.90;99.90
1766;DHT22;880;52.452;8.656;2023-04-07T01:58:14;8.80;99.90
1766;DHT22;880;52.452;8.656;2023-04-07T02:00:42;8.80;99.90
1766;DHT22;880;52.452;8.656;2023-04-07T02:03:22;8.70;99.90
1766;DHT22;880;52.452;8.656;2023-04-07T02:06:05;8.60;99.90
1766;DHT22;880;52.452;8.656;2023-04-07T02:08:39;8.60;99.90
1766;DHT22;880;52.452;8.656;2023-04-07T02:11:09;8.50;99.90
1766;DHT22;880;52.452;8.656;2023-04-07T02:13:37;8.40;99.90
1766;DHT22;880;52.452;8.656;2023-04-07T02:16:08;8.40;99.90
1766;DHT22;880;52.452;8.656;2023-04-07T02:18:36;8.40;99.90
1766;DHT22;880;52.452;8.656;2023-04-07T02:21:04;8.40;99.90
1766;DHT22;880;52.452;8.656;2023-04-07T02:23:35;8.30;99.90
1766;DHT22;880;52.452;8.656;2023-04-07T02:26:02;8.20;99.90
1766;DHT22;880;52.452;8.656;2023-04-07T02:28:29;8.10;99.90
1766;DHT22;880;52.452;8.656;2023-04-07T02:30:56;8.00;99.90
1766;DHT22;880;52.452;8.656;2023-04-07T02:33:23;8.00;99.90
1766;DHT22;880;52.452;8.656;2023-04-07T02:35:50;8.00;99.90
1766;DHT22;880;52.452;8.656;2023-04-07T02:38:17;8.00;99.90
1766;DHT22;880;52.452;8.656;2023-04-07T02:40:44;7.90;99.90
1766;DHT22;880;52.452;8.656;2023-04-07T02:43:11;7.90;99.90
1766;DHT22;880;52.452;8.656;2023-04-07T02:45:39;7.90;99.90
1766;DHT22;880;52.452;8.656;2023-04-07T02:48:06;7.90;99.90
1766;DHT22;880;52.452;8.656;2023-04-07T02:50:33;7.90;99.90
1766;DHT22;880;52.452;8.656;2023-04-07T02:53:00;7.90;99.90
1766;DHT22;880;52.452;8.656;2023-04-07T02:55:28;7.90;99.90
1766;DHT22;880;52.452;8.656;2023-04-07T02:57:55;7.80;99.90
1766;DHT22;880;52.452;8.656;2023-04-07T03:00:35;7.80;99.90
1766;DHT22;880;52.452;8.656;2023-04-07T03:03:08;7.90;99.90
1766;DHT22;880;52.452;8.656;2023-04-07T03:05:37;7.90;99.90
1766;DHT22;880;52.452;8.656;2023-04-07T03:08:05;7.90;99.90
1766;DHT22;880;52.452;8.656;2023-04-07T03:10:32;7.90;99.90
1766;DHT22;880;52.452;8.656;2023-04-07T03:12:59;7.90;99.90
1766;DHT22;880;52.452;8.656;2023-04-07T03:15:27;8.00;99.90
1766;DHT22;880;52.452;8.656;2023-04-07T03:17:54;8.00;99.90
1766;DHT22;880;52.452;8.656;2023-04-07T03:20:22;8.00;99.90
1766;DHT22;880;52.452;8.656;2023-04-07T03:22:52;8.10;99.90
1766;DHT22;880;52.452;8.656;2023-04-07T03:25:24;8.20;99.90
1766;DHT22;880;52.452;8.656;2023-04-07T03:27:53;8.20;99.90
1766;DHT22;880;52.452;8.656;2023-04-07T03:30:21;8.20;99.90
1766;DHT22;880;52.452;8.656;2023-04-07T03:32:48;8.20;99.90
1766;DHT22;880;52.452;8.656;2023-04-07T03:35:16;8.30;99.90
1766;DHT22;880;52.452;8.656;2023-04-07T03:37:43;8.20;99.90
1766;DHT22;880;52.452;8.656;2023-04-07T03:40:14;8.20;99.90
1766;DHT22;880;52.452;8.656;2023-04-07T03:42:42;8.20;99.90
1766;DHT22;880;52.452;8.656;2023-04-07T03:45:11;8.20;99.90
1766;DHT22;880;52.452;8.656;2023-04-07T03:47:43;8.20;99.90
1766;DHT22;880;52.452;8.656;2023-04-07T03:50:11;8.20;99.90
1766;DHT22;880;52.452;8.656;2023-04-07T03:52:49;8.20;99.90
1766;DHT22;880;52.452;8.656;2023-04-07T03:55:22;8.20;99.90
1766;DHT22;880;52.452;8.656;2023-04-07T03:57:53;8.20;99.90
1766;DHT22;880;52.452;8.656;2023-04-07T04:00:21;8.20;99.90
1766;DHT22;880;52.452;8.656;2023-04-07T04:03:02;8.10;99.90
1766;DHT22;880;52.452;8.656;2023-04-07T04:05:30;8.10;99.90
1766;DHT22;880;52.452;8.656;2023-04-07T04:07:57;8.10;99.90
1766;DHT22;880;52.452;8.656;2023-04-07T04:10:26;8.10;99.90
1766;DHT22;880;52.452;8.656;2023-04-07T04:12:53;8.10;99.90
1766;DHT22;880;52.452;8.656;2023-04-07T04:15:21;8.10;99.90
1766;DHT22;880;52.452;8.656;2023-04-07T04:17:49;8.10;99.90
1766;DHT22;880;52.452;8.656;2023-04-07T04:20:17;8.10;99.90
1766;DHT22;880;52.452;8.656;2023-04-07T04:22:47;8.10;99.90
1766;DHT22;880;52.452;8.656;2023-04-07T04:25:16;8.10;99.90
1766;DHT22;880;52.452;8.656;2023-04-07T04:27:47;8.10;99.90
1766;DHT22;880;52.452;8.656;2023-04-07T04:30:21;8.20;99.90
1766;DHT22;880;52.452;8.656;2023-04-07T04:32:54;8.20;99.90
1766;DHT22;880;52.452;8.656;2023-04-07T04:35:30;8.10;99.90
1766;DHT22;880;52.452;8.656;2023-04-07T04:38:07;8.10;99.90
1766;DHT22;880;52.452;8.656;2023-04-07T04:40:36;8.10;99.90
1766;DHT22;880;52.452;8.656;2023-04-07T04:43:04;8.20;99.90
1766;DHT22;880;52.452;8.656;2023-04-07T04:45:35;8.10;99.90
1766;DHT22;880;52.452;8.656;2023-04-07T04:48:03;8.10;99.90
1766;DHT22;880;52.452;8.656;2023-04-07T04:50:30;8.10;99.90
1766;DHT22;880;52.452;8.656;2023-04-07T04:52:58;8.10;99.90
1766;DHT22;880;52.452;8.656;2023-04-07T04:55:25;8.00;99.90
1766;DHT22;880;52.452;8.656;2023-04-07T04:57:53;8.10;99.90
1766;DHT22;880;52.452;8.656;2023-04-07T05:00:29;8.00;99.90
1766;DHT22;880;52.452;8.656;2023-04-07T05:03:00;8.00;99.90
1766;DHT22;880;52.452;8.656;2023-04-07T05:05:33;8.00;99.90
1766;DHT22;880;52.452;8.656;2023-04-07T05:08:00;8.00;99.90
1766;DHT22;880;52.452;8.656;2023-04-07T05:10:32;7.90;99.90
1766;DHT22;880;52.452;8.656;2023-04-07T05:13:05;7.90;99.90
1766;DHT22;880;52.452;8.656;2023-04-07T05:15:32;7.90;99.90
1766;DHT22;880;52.452;8.656;2023-04-07T05:17:59;7.70;99.90
1766;DHT22;880;52.452;8.656;2023-04-07T05:20:27;7.70;99.90
1766;DHT22;880;52.452;8.656;2023-04-07T05:22:55;7.70;99.90
1766;DHT22;880;52.452;8.656;2023-04-07T05:25:28;7.70;99.90
1766;DHT22;880;52.452;8.656;2023-04-07T05:27:58;7.60;99.90
1766;DHT22;880;52.452;8.656;2023-04-07T05:30:26;7.60;99.90
1766;DHT22;880;52.452;8.656;2023-04-07T05:32:53;7.60;99.90
1766;DHT22;880;52.452;8.656;2023-04-07T05:35:30;7.60;99.90
1766;DHT22;880;52.452;8.656;2023-04-07T05:37:58;7.70;99.90
1766;DHT22;880;52.452;8.656;2023-04-07T05:40:25;7.60;99.90
1766;DHT22;880;52.452;8.656;2023-04-07T05:42:54;7.50;99.90
1766;DHT22;880;52.452;8.656;2023-04-07T05:45:21;7.40;99.90
1766;DHT22;880;52.452;8.656;2023-04-07T05:47:49;7.30;99.90
1766;DHT22;880;52.452;8.656;2023-04-07T05:50:24;7.20;99.90
1766;DHT22;880;52.452;8.656;2023-04-07T05:52:51;7.10;99.90
1766;DHT22;880;52.452;8.656;2023-04-07T05:55:22;7.10;99.90
1766;DHT22;880;52.452;8.656;2023-04-07T05:57:50;7.00;99.90
1766;DHT22;880;52.452;8.656;2023-04-07T06:00:20;6.90;99.90
1766;DHT22;880;52.452;8.656;2023-04-07T06:02:58;6.90;99.90
1766;DHT22;880;52.452;8.656;2023-04-07T06:05:26;6.90;99.90
1766;DHT22;880;52.452;8.656;2023-04-07T06:07:55;6.90;99.90
1766;DHT22;880;52.452;8.656;2023-04-07T06:10:25;6.90;99.90
1766;DHT22;880;52.452;8.656;2023-04-07T06:12:52;6.80;99.90
1766;DHT22;880;52.452;8.656;2023-04-07T06:15:19;6.80;99.90
1766;DHT22;880;52.452;8.656;2023-04-07T06:17:46;6.80;99.90
1766;DHT22;880;52.452;8.656;2023-04-07T06:20:13;6.90;99.90
1766;DHT22;880;52.452;8.656;2023-04-07T06:22:40;6.90;99.90
1766;DHT22;880;52.452;8.656;2023-04-07T06:25:08;7.00;99.90
1766;DHT22;880;52.452;8.656;2023-04-07T06:27:35;7.10;99.90
1766;DHT22;880;52.452;8.656;2023-04-07T06:30:02;7.20;99.90
1766;DHT22;880;52.452;8.656;2023-04-07T06:32:29;7.20;99.90
1766;DHT22;880;52.452;8.656;2023-04-07T06:34:57;7.30;99.90
1766;DHT22;880;52.452;8.656;2023-04-07T06:37:24;7.30;99.90
1766;DHT22;880;52.452;8.656;2023-04-07T06:39:53;7.30;99.90
1766;DHT22;880;52.452;8.656;2023-04-07T06:42:20;7.40;99.90
1766;DHT22;880;52.452;8.656;2023-04-07T06:44:58;7.60;99.90
1766;DHT22;880;52.452;8.656;2023-04-07T06:47:25;7.70;99.90
1766;DHT22;880;52.452;8.656;2023-04-07T06:49:53;7.80;99.90
1766;DHT22;880;52.452;8.656;2023-04-07T06:52:20;7.90;99.90
1766;DHT22;880;52.452;8.656;2023-04-07T06:54:47;7.90;99.90
1766;DHT22;880;52.452;8.656;2023-04-07T06:57:14;8.00;99.90
1766;DHT22;880;52.452;8.656;2023-04-07T06:59:42;8.10;99.90
1766;DHT22;880;52.452;8.656;2023-04-07T07:02:09;8.20;99.90
1766;DHT22;880;52.452;8.656;2023-04-07T07:04:36;8.30;99.90
1766;DHT22;880;52.452;8.656;2023-04-07T07:07:03;8.40;99.90
1766;DHT22;880;52.452;8.656;2023-04-07T07:09:30;8.50;99.90
1766;DHT22;880;52.452;8.656;2023-04-07T07:11:57;8.50;99.90
1766;DHT22;880;52.452;8.656;2023-04-07T07:14:24;8.60;99.90
1766;DHT22;880;52.452;8.656;2023-04-07T07:16:51;8.60;99.90
1766;DHT22;880;52.452;8.656;2023-04-07T07:19:18;8.70;99.90
1766;DHT22;880;52.452;8.656;2023-04-07T07:21:45;9.00;99.90
1766;DHT22;880;52.452;8.656;2023-04-07T07:24:12;9.10;99.90
1766;DHT22;880;52.452;8.656;2023-04-07T07:26:39;9.20;99.90
1766;DHT22;880;52.452;8.656;2023-04-07T07:29:09;9.40;99.90
1766;DHT22;880;52.452;8.656;2023-04-07T07:31:36;9.50;99.90
1766;DHT22;880;52.452;8.656;2023-04-07T07:34:04;9.60;99.90
1766;DHT22;880;52.452;8.656;2023-04-07T07:36:31;9.70;99.90
1766;DHT22;880;52.452;8.656;2023-04-07T07:38:58;9.70;99.90
1766;DHT22;880;52.452;8.656;2023-04-07T07:41:25;9.80;99.90
1766;DHT22;880;52.452;8.656;2023-04-07T07:43:52;9.80;99.90
1766;DHT22;880;52.452;8.656;2023-04-07T07:46:19;9.80;99.90
1766;DHT22;880;52.452;8.656;2023-04-07T07:48:46;9.90;99.90
1766;DHT22;880;52.452;8.656;2023-04-07T07:51:13;9.90;99.90
1766;DHT22;880;52.452;8.656;2023-04-07T07:53:41;10.00;99.90
1766;DHT22;880;52.452;8.656;2023-04-07T07:56:08;10.10;99.90
1766;DHT22;880;52.452;8.656;2023-04-07T07:58:35;10.10;99.90
1766;DHT22;880;52.452;8.656;2023-04-07T08:01:02;10.20;99.90
1766;DHT22;880;52.452;8.656;2023-04-07T08:03:29;10.30;99.90
1766;DHT22;880;52.452;8.656;2023-04-07T08:05:56;10.50;99.90
1766;DHT22;880;52.452;8.656;2023-04-07T08:08:23;10.70;99.90
1766;DHT22;880;52.452;8.656;2023-04-07T08:10:50;10.90;99.90
1766;DHT22;880;52.452;8.656;2023-04-07T08:13:18;11.10;99.90
1766;DHT22;880;52.452;8.656;2023-04-07T08:15:45;11.30;99.90
1766;DHT22;880;52.452;8.656;2023-04-07T08:18:12;11.20;99.90
1766;DHT22;880;52.452;8.656;2023-04-07T08:20:39;11.20;99.90
1766;DHT22;880;52.452;8.656;2023-04-07T08:23:06;11.10;99.90
1766;DHT22;880;52.452;8.656;2023-04-07T08:25:34;11.30;99.90
1766;DHT22;880;52.452;8.656;2023-04-07T08:28:01;11.40;99.90
1766;DHT22;880;52.452;8.656;2023-04-07T08:30:28;11.40;99.90
1766;DHT22;880;52.452;8.656;2023-04-07T08:32:55;11.50;99.90
1766;DHT22;880;52.452;8.656;2023-04-07T08:35:22;11.50;99.90
1766;DHT22;880;52.452;8.656;2023-04-07T08:37:49;11.50;99.90
1766;DHT22;880;52.452;8.656;2023-04-07T08:40:16;11.70;99.90
1766;DHT22;880;52.452;8.656;2023-04-07T08:42:47;11.90;99.90
1766;DHT22;880;52.452;8.656;2023-04-07T08:45:16;12.00;99.90
1766;DHT22;880;52.452;8.656;2023-04-07T08:47:45;12.00;99.90
1766;DHT22;880;52.452;8.656;2023-04-07T08:50:16;12.10;99.90
1766;DHT22;880;52.452;8.656;2023-04-07T08:52:45;12.30;99.90
1766;DHT22;880;52.452;8.656;2023-04-07T08:55:16;12.30;99.90
1766;DHT22;880;52.452;8.656;2023-04-07T08:57:43;12.20;99.90
1766;DHT22;880;52.452;8.656;2023-04-07T09:00:12;12.20;99.90
1766;DHT22;880;52.452;8.656;2023-04-07T09:02:50;12.20;99.90
1766;DHT22;880;52.452;8.656;2023-04-07T09:05:17;12.30;99.90
1766;DHT22;880;52.452;8.656;2023-04-07T09:07:44;12.50;99.90
1766;DHT22;880;52.452;8.656;2023-04-07T09:10:11;12.70;99.90
1766;DHT22;880;52.452;8.656;2023-04-07T09:12:38;13.00;99.90
1766;DHT22;880;52.452;8.656;2023-04-07T09:15:06;13.10;99.90
1766;DHT22;880;52.452;8.656;2023-04-07T09:17:34;13.20;99.90
1766;DHT22;880;52.452;8.656;2023-04-07T09:20:01;13.30;99.90
1766;DHT22;880;52.452;8.656;2023-04-07T09:22:56;13.40;99.90
1766;DHT22;880;52.452;8.656;2023-04-07T09:25:27;13.40;99.90
1766;DHT22;880;52.452;8.656;2023-04-07T09:28:00;13.50;99.90
1766;DHT22;880;52.452;8.656;2023-04-07T09:30:32;13.50;99.90
1766;DHT22;880;52.452;8.656;2023-04-07T09:33:00;13.70;99.90
1766;DHT22;880;52.452;8.656;2023-04-07T09:35:27;13.70;99.90
1766;DHT22;880;52.452;8.656;2023-04-07T09:38:08;13.70;99.90
1766;DHT22;880;52.452;8.656;2023-04-07T09:40:36;13.60;99.90
1766;DHT22;880;52.452;8.656;2023-04-07T09:43:04;13.60;99.90
1766;DHT22;880;52.452;8.656;2023-04-07T09:45:32;13.60;99.90
1766;DHT22;880;52.452;8.656;2023-04-07T09:48:07;13.70;99.90
1766;DHT22;880;52.452;8.656;2023-04-07T09:50:39;13.70;99.90
1766;DHT22;880;52.452;8.656;2023-04-07T09:53:07;13.60;99.90
1766;DHT22;880;52.452;8.656;2023-04-07T09:55:34;13.60;99.90
1766;DHT22;880;52.452;8.656;2023-04-07T09:58:03;13.70;99.90
1766;DHT22;880;52.452;8.656;2023-04-07T10:00:31;14.00;99.90
1766;DHT22;880;52.452;8.656;2023-04-07T10:02:59;14.10;99.90
1766;DHT22;880;52.452;8.656;2023-04-07T10:05:27;14.40;99.90
1766;DHT22;880;52.452;8.656;2023-04-07T10:07:55;14.60;99.90
1766;DHT22;880;52.452;8.656;2023-04-07T10:10:23;14.50;99.90
1766;DHT22;880;52.452;8.656;2023-04-07T10:12:53;14.60;99.90
1766;DHT22;880;52.452;8.656;2023-04-07T10:15:21;14.60;99.90
1766;DHT22;880;52.452;8.656;2023-04-07T10:17:48;14.60;99.90
1766;DHT22;880;52.452;8.656;2023-04-07T10:20:18;14.60;99.30
1766;DHT22;880;52.452;8.656;2023-04-07T10:22:50;14.60;99.90
1766;DHT22;880;52.452;8.656;2023-04-07T10:25:21;14.80;99.10
1766;DHT22;880;52.452;8.656;2023-04-07T10:28:03;14.90;98.90
1766;DHT22;880;52.452;8.656;2023-04-07T10:30:33;14.80;99.10
1766;DHT22;880;52.452;8.656;2023-04-07T10:33:00;14.80;99.20
1766;DHT22;880;52.452;8.656;2023-04-07T10:35:28;15.20;99.70
1766;DHT22;880;52.452;8.656;2023-04-07T10:38:33;15.20;96.90
1766;DHT22;880;52.452;8.656;2023-04-07T10:44:09;15.30;94.80
1766;DHT22;880;52.452;8.656;2023-04-07T10:47:03;15.30;93.50
1766;DHT22;880;52.452;8.656;2023-04-07T10:49:32;15.40;94.00
1766;DHT22;880;52.452;8.656;2023-04-07T10:54:40;15.50;92.50
1766;DHT22;880;52.452;8.656;2023-04-07T10:57:09;15.20;92.40
1766;DHT22;880;52.452;8.656;2023-04-07T10:59:40;15.20;92.30
1766;DHT22;880;52.452;8.656;2023-04-07T11:04:45;15.30;92.10
1766;DHT22;880;52.452;8.656;2023-04-07T11:07:13;15.20;91.80
1766;DHT22;880;52.452;8.656;2023-04-07T11:09:42;15.30;93.20
1766;DHT22;880;52.452;8.656;2023-04-07T11:12:22;15.50;92.70
1766;DHT22;880;52.452;8.656;2023-04-07T11:14:49;15.80;92.00
1766;DHT22;880;52.452;8.656;2023-04-07T11:17:16;16.00;91.70
1766;DHT22;880;52.452;8.656;2023-04-07T11:19:53;16.10;91.40
1766;DHT22;880;52.452;8.656;2023-04-07T11:22:20;16.30;90.70
1766;DHT22;880;52.452;8.656;2023-04-07T11:24:56;16.40;90.20
1766;DHT22;880;52.452;8.656;2023-04-07T11:27:23;16.30;88.00
1766;DHT22;880;52.452;8.656;2023-04-07T11:29:50;16.30;90.10
1766;DHT22;880;52.452;8.656;2023-04-07T11:32:22;16.50;87.30
1766;DHT22;880;52.452;8.656;2023-04-07T11:34:56;16.50;87.70
1766;DHT22;880;52.452;8.656;2023-04-07T11:37:24;16.60;87.20
1766;DHT22;880;52.452;8.656;2023-04-07T11:39:56;16.40;86.40
1766;DHT22;880;52.452;8.656;2023-04-07T11:42:31;16.30;87.90
1766;DHT22;880;52.452;8.656;2023-04-07T11:44:59;16.50;87.00
1766;DHT22;880;52.452;8.656;2023-04-07T11:47:36;16.60;85.50
1766;DHT22;880;52.452;8.656;2023-04-07T11:50:06;16.50;83.70
1766;DHT22;880;52.452;8.656;2023-04-07T11:52:44;16.40;83.00
1766;DHT22;880;52.452;8.656;2023-04-07T11:55:19;16.40;84.80
1766;DHT22;880;52.452;8.656;2023-04-07T11:57:48;16.30;82.40
1766;DHT22;880;52.452;8.656;2023-04-07T12:00:18;16.30;80.30
1766;DHT22;880;52.452;8.656;2023-04-07T12:02:45;16.30;79.80
1766;DHT22;880;52.452;8.656;2023-04-07T12:05:13;16.40;80.40
1766;DHT22;880;52.452;8.656;2023-04-07T12:07:51;16.60;78.10
1766;DHT22;880;52.452;8.656;2023-04-07T12:10:23;16.70;76.40
1766;DHT22;880;52.452;8.656;2023-04-07T12:12:53;16.70;76.70
1766;DHT22;880;52.452;8.656;2023-04-07T12:15:23;16.60;76.40
1766;DHT22;880;52.452;8.656;2023-04-07T12:17:49;16.50;75.40
1766;DHT22;880;52.452;8.656;2023-04-07T12:20:16;16.30;72.70
1766;DHT22;880;52.452;8.656;2023-04-07T12:22:44;16.20;74.30
1766;DHT22;880;52.452;8.656;2023-04-07T12:25:11;16.40;74.30
1766;DHT22;880;52.452;8.656;2023-04-07T12:27:38;16.60;72.20
1766;DHT22;880;52.452;8.656;2023-04-07T12:30:10;16.80;72.50
1766;DHT22;880;52.452;8.656;2023-04-07T12:32:39;17.00;72.80
1766;DHT22;880;52.452;8.656;2023-04-07T12:35:06;17.00;69.80
1766;DHT22;880;52.452;8.656;2023-04-07T12:37:34;17.00;68.90
1766;DHT22;880;52.452;8.656;2023-04-07T12:40:01;16.90;67.70
1766;DHT22;880;52.452;8.656;2023-04-07T12:42:28;16.90;68.40
1766;DHT22;880;52.452;8.656;2023-04-07T12:44:55;16.90;67.00
1766;DHT22;880;52.452;8.656;2023-04-07T12:47:22;16.90;67.80
1766;DHT22;880;52.452;8.656;2023-04-07T12:49:49;16.80;66.70
1766;DHT22;880;52.452;8.656;2023-04-07T12:52:16;16.80;70.60
1766;DHT22;880;52.452;8.656;2023-04-07T12:54:43;16.90;67.00
1766;DHT22;880;52.452;8.656;2023-04-07T12:57:11;17.00;68.60
1766;DHT22;880;52.452;8.656;2023-04-07T12:59:38;17.00;68.60
1766;DHT22;880;52.452;8.656;2023-04-07T13:02:05;17.00;67.70
1766;DHT22;880;52.452;8.656;2023-04-07T13:04:33;16.90;65.70
1766;DHT22;880;52.452;8.656;2023-04-07T13:07:01;16.70;65.90
1766;DHT22;880;52.452;8.656;2023-04-07T13:09:28;16.70;67.10
1766;DHT22;880;52.452;8.656;2023-04-07T13:11:55;16.70;66.90
1766;DHT22;880;52.452;8.656;2023-04-07T13:14:23;16.60;66.70
1766;DHT22;880;52.452;8.656;2023-04-07T13:16:50;16.80;64.50
1766;DHT22;880;52.452;8.656;2023-04-07T13:19:18;16.80;63.70
1766;DHT22;880;52.452;8.656;2023-04-07T13:21:45;16.80;65.10
1766;DHT22;880;52.452;8.656;2023-04-07T13:24:14;16.90;63.20
1766;DHT22;880;52.452;8.656;2023-04-07T13:26:41;16.80;63.00
1766;DHT22;880;52.452;8.656;2023-04-07T13:29:08;17.10;65.50
1766;DHT22;880;52.452;8.656;2023-04-07T13:31:35;17.30;63.80
1766;DHT22;880;52.452;8.656;2023-04-07T13:34:02;17.40;64.20
1766;DHT22;880;52.452;8.656;2023-04-07T13:36:29;17.40;65.90
1766;DHT22;880;52.452;8.656;2023-04-07T13:38:56;17.40;63.80
1766;DHT22;880;52.452;8.656;2023-04-07T13:41:23;17.40;63.90
1766;DHT22;880;52.452;8.656;2023-04-07T13:43:50;17.00;62.60
1766;DHT22;880;52.452;8.656;2023-04-07T13:46:17;16.80;64.20
1766;DHT22;880;52.452;8.656;2023-04-07T13:48:47;16.90;66.00
1766;DHT22;880;52.452;8.656;2023-04-07T13:51:15;17.00;63.80
1766;DHT22;880;52.452;8.656;2023-04-07T13:53:42;16.80;64.80
1766;DHT22;880;52.452;8.656;2023-04-07T13:56:09;16.90;65.60
1766;DHT22;880;52.452;8.656;2023-04-07T13:58:36;16.90;65.70
1766;DHT22;880;52.452;8.656;2023-04-07T14:01:03;16.80;67.50
1766;DHT22;880;52.452;8.656;2023-04-07T14:03:30;16.90;65.90
1766;DHT22;880;52.452;8.656;2023-04-07T14:05:58;17.10;66.70
1766;DHT22;880;52.452;8.656;2023-04-07T14:08:27;17.30;64.20
1766;DHT22;880;52.452;8.656;2023-04-07T14:10:53;17.40;62.80
1766;DHT22;880;52.452;8.656;2023-04-07T14:13:21;17.50;64.00
1766;DHT22;880;52.452;8.656;2023-04-07T14:15:49;17.50;62.80
1766;DHT22;880;52.452;8.656;2023-04-07T14:18:16;17.50;64.50
1766;DHT22;880;52.452;8.656;2023-04-07T14:20:43;17.60;65.40
1766;DHT22;880;52.452;8.656;2023-04-07T14:23:10;17.80;64.80
1766;DHT22;880;52.452;8.656;2023-04-07T14:25:37;17.80;62.10
1766;DHT22;880;52.452;8.656;2023-04-07T14:28:04;17.80;61.20
1766;DHT22;880;52.452;8.656;2023-04-07T14:30:34;17.80;63.60
1766;DHT22;880;52.452;8.656;2023-04-07T14:33:04;17.90;60.50
1766;DHT22;880;52.452;8.656;2023-04-07T14:35:31;17.80;60.30
1766;DHT22;880;52.452;8.656;2023-04-07T14:37:58;17.60;60.80
1766;DHT22;880;52.452;8.656;2023-04-07T14:40:25;17.50;61.10
1766;DHT22;880;52.452;8.656;2023-04-07T14:42:52;17.50;61.40
1766;DHT22;880;52.452;8.656;2023-04-07T14:45:33;17.50;59.70
1766;DHT22;880;52.452;8.656;2023-04-07T14:48:01;17.40;59.00
1766;DHT22;880;52.452;8.656;2023-04-07T14:50:31;17.20;61.40
1766;DHT22;880;52.452;8.656;2023-04-07T14:52:59;17.30;60.00
1766;DHT22;880;52.452;8.656;2023-04-07T14:55:27;17.20;59.00
1766;DHT22;880;52.452;8.656;2023-04-07T14:57:54;17.10;59.40
1766;DHT22;880;52.452;8.656;2023-04-07T15:00:21;17.20;61.70
1766;DHT22;880;52.452;8.656;2023-04-07T15:02:50;17.20;59.50
1766;DHT22;880;52.452;8.656;2023-04-07T15:05:20;17.20;60.50
1766;DHT22;880;52.452;8.656;2023-04-07T15:07:48;17.20;59.30
1766;DHT22;880;52.452;8.656;2023-04-07T15:10:18;17.20;58.60
1766;DHT22;880;52.452;8.656;2023-04-07T15:12:46;17.30;59.10
1766;DHT22;880;52.452;8.656;2023-04-07T15:15:14;17.20;58.80
1766;DHT22;880;52.452;8.656;2023-04-07T15:17:41;17.20;58.60
1766;DHT22;880;52.452;8.656;2023-04-07T15:20:11;16.90;58.20
1766;DHT22;880;52.452;8.656;2023-04-07T15:22:39;16.90;58.80
1766;DHT22;880;52.452;8.656;2023-04-07T15:25:06;17.00;59.40
1766;DHT22;880;52.452;8.656;2023-04-07T15:27:33;17.00;58.90
1766;DHT22;880;52.452;8.656;2023-04-07T15:30:00;16.90;57.60
1766;DHT22;880;52.452;8.656;2023-04-07T15:32:29;16.80;57.30
1766;DHT22;880;52.452;8.656;2023-04-07T15:34:57;16.60;58.30
1766;DHT22;880;52.452;8.656;2023-04-07T15:37:24;16.50;59.00
1766;DHT22;880;52.452;8.656;2023-04-07T15:39:51;16.50;57.40
1766;DHT22;880;52.452;8.656;2023-04-07T15:42:18;16.50;57.70
1766;DHT22;880;52.452;8.656;2023-04-07T15:44:45;16.60;57.00
1766;DHT22;880;52.452;8.656;2023-04-07T15:47:12;16.60;56.40
1766;DHT22;880;52.452;8.656;2023-04-07T15:49:39;16.60;56.10
1766;DHT22;880;52.452;8.656;2023-04-07T15:52:07;16.60;56.70
1766;DHT22;880;52.452;8.656;2023-04-07T15:54:34;16.50;55.80
1766;DHT22;880;52.452;8.656;2023-04-07T15:57:01;16.60;56.70
1766;DHT22;880;52.452;8.656;2023-04-07T15:59:28;16.70;56.80
1766;DHT22;880;52.452;8.656;2023-04-07T16:01:56;16.60;55.20
1766;DHT22;880;52.452;8.656;2023-04-07T16:04:24;16.50;55.90
1766;DHT22;880;52.452;8.656;2023-04-07T16:06:51;16.50;56.60
1766;DHT22;880;52.452;8.656;2023-04-07T16:09:18;16.60;58.60
1766;DHT22;880;52.452;8.656;2023-04-07T16:11:45;16.70;57.40
1766;DHT22;880;52.452;8.656;2023-04-07T16:14:12;16.60;56.90
1766;DHT22;880;52.452;8.656;2023-04-07T16:16:40;16.60;57.10
1766;DHT22;880;52.452;8.656;2023-04-07T16:19:07;16.40;56.10
1766;DHT22;880;52.452;8.656;2023-04-07T16:21:34;16.20;56.90
1766;DHT22;880;52.452;8.656;2023-04-07T16:24:01;16.00;57.90
1766;DHT22;880;52.452;8.656;2023-04-07T16:26:28;16.00;58.30
1766;DHT22;880;52.452;8.656;2023-04-07T16:28:55;16.10;57.60
1766;DHT22;880;52.452;8.656;2023-04-07T16:31:22;16.20;57.50
1766;DHT22;880;52.452;8.656;2023-04-07T16:33:49;16.20;58.00
1766;DHT22;880;52.452;8.656;2023-04-07T16:36:17;16.20;57.30
1766;DHT22;880;52.452;8.656;2023-04-07T16:38:44;16.20;57.80
1766;DHT22;880;52.452;8.656;2023-04-07T16:41:11;16.00;58.50
1766;DHT22;880;52.452;8.656;2023-04-07T16:43:38;15.80;58.00
1766;DHT22;880;52.452;8.656;2023-04-07T16:46:05;15.60;59.00
1766;DHT22;880;52.452;8.656;2023-04-07T16:48:32;15.40;60.70
1766;DHT22;880;52.452;8.656;2023-04-07T16:50:59;15.50;61.00
1766;DHT22;880;52.452;8.656;2023-04-07T16:53:26;15.50;60.90